Flight Track Log - Related Links

Times and Time Zones

All times are in EDT time to prevent confusion due to time zone crossing. See the N9424F flight status page for this flight to view local times or setup timezone preferences in your user account.

Time Position Orientation Groundspeed Altitude Reporting Facility
EDT Latitude Longitude Course Direction KTS MPH feet Rate Location/Type
Sun 06:59:02 PM 40.0167 -86.2500 360° North 76 87 1,300  Level Indianapolis TRACON
Sun 06:59:14 PM 40.0167 -86.2500 90° East 77 89 1,400 493 Climbing Indianapolis TRACON
Sun 07:00:15 PM 40.0167 -86.2333 90° East 103 119 1,900 600 Climbing Indianapolis TRACON
Sun 07:01:14 PM 40.0469 -86.2572 329° Northwest 99 114 2,600 645 Climbing Chicago Center
Sun 07:02:16 PM 40.0697 -86.2747 330° Northwest 99 114 3,200 532 Climbing Chicago Center
Sun 07:03:18 PM 40.0931 -86.2922 330° Northwest 97 112 3,700 339 Climbing Chicago Center
Sun 07:04:20 PM 40.1236 -86.3142 331° Northwest 100 115 3,900 140 Climbing Chicago Center
Sun 07:05:27 PM 40.1533 -86.3358 331° Northwest 112 129 4,000 48 Climbing Indianapolis Center
Sun 07:06:24 PM 40.1844 -86.3575 332° Northwest 119 137 4,000  Level Chicago Center
Sun 07:07:26 PM 40.2139 -86.3783 332° Northwest 121 139 4,000 -47 Level Chicago Center
Sun 07:08:31 PM 40.2489 -86.4022 332° Northwest 122 140 3,900 -48 Descending Chicago Center
Sun 07:09:31 PM 40.2792 -86.4258 329° Northwest 123 142 3,900  Level Chicago Center
Sun 07:10:32 PM 40.3078 -86.4467 331° Northwest 121 139 3,900  Level Chicago Center
Sun 07:11:32 PM 40.3383 -86.4703 330° Northwest 121 139 3,900  Level Chicago Center
Sun 07:12:33 PM 40.3667 -86.4939 328° Northwest 122 140 3,900  Level Chicago Center
Sun 07:13:34 PM 40.3972 -86.5147 333° Northwest 122 140 3,900  Level Chicago Center
Sun 07:14:34 PM 40.4258 -86.5356 331° Northwest 121 139 3,900  Level Chicago Center
Sun 07:15:41 PM 40.4603 -86.5594 332° Northwest 123 142 3,900  Level Chicago Center
Sun 07:16:42 PM 40.4908 -86.5806 332° Northwest 121 139 3,900  Level Chicago Center
Sun 07:17:42 PM 40.5194 -86.6014 331° Northwest 121 139 3,900  Level Chicago Center
Sun 07:18:43 PM 40.5519 -86.6225 334° Northwest 123 142 3,900  Level Chicago Center
Sun 07:19:43 PM 40.5825 -86.6436 332° Northwest 125 144 3,900  Level Chicago Center
Sun 07:20:54 PM 40.6178 -86.6669 333° Northwest 122 140 3,900  Level Chicago Center
Sun 07:21:56 PM 40.6475 -86.6886 331° Northwest 122 140 3,900  Level Chicago Center
Sun 07:22:45 PM 40.6719 -86.7094 327° Northwest 124 143 3,900 55 Level Chicago Center
Sun 07:23:46 PM 40.7025 -86.7306 332° Northwest 124 143 4,000  Climbing Chicago Center
Sun 07:24:46 PM 40.7331 -86.7544 329° Northwest 124 143 3,900 -50 Descending Chicago Center
Sun 07:25:47 PM 40.7633 -86.7786 329° Northwest 123 142 3,900  Level Chicago Center
Sun 07:27:06 PM 40.7972 -86.8039 331° Northwest 121 139 3,900  Level Chicago Center
Sun 07:28:08 PM 40.8344 -86.8281 334° Northwest 124 143 3,900  Level Chicago Center
Sun 07:29:10 PM 40.8622 -86.8514 328° Northwest 121 139 3,900  Level Chicago Center
Sun 07:30:12 PM 40.8917 -86.8725 332° Northwest 121 139 3,900  Level Chicago Center
Sun 07:31:14 PM 40.9208 -86.8942 331° Northwest 121 139 3,900  Level Chicago Center
Sun 07:32:16 PM 40.9503 -86.9156 331° Northwest 121 139 3,900 48 Level Chicago Center
Sun 07:33:18 PM 40.9856 -86.9403 332° Northwest 120 138 4,000 48 Climbing Chicago Center
Sun 07:34:21 PM 41.0139 -86.9611 331° Northwest 118 136 4,000  Level Chicago Center
Sun 07:35:23 PM 41.0433 -86.9822 332° Northwest 120 138 4,000  Level Chicago Center
Sun 07:36:25 PM 41.0719 -87.0042 330° Northwest 120 138 4,000  Level Chicago Center
Sun 07:37:27 PM 41.1008 -87.0272 329° Northwest 121 139 4,000  Level Chicago Center
Sun 07:38:29 PM 41.1381 -87.0525 333° Northwest 124 143 4,000  Level Chicago Center
Sun 07:39:31 PM 41.1669 -87.0725 332° Northwest 122 140 4,000 -48 Level Chicago Center
Sun 07:40:33 PM 41.1961 -87.0928 332° Northwest 120 138 3,900 -48 Descending Chicago Center
Sun 07:41:35 PM 41.2225 -87.1142 329° Northwest 116 133 3,900  Level Chicago Center
Sun 07:42:37 PM 41.2522 -87.1342 333° Northwest 118 136 3,900  Level Chicago Center
Sun 07:43:39 PM 41.2858 -87.1600 330° Northwest 118 136 3,900  Level Chicago Center
Sun 07:44:41 PM 41.3147 -87.1822 330° Northwest 121 139 3,900  Level Chicago Center
Sun 07:45:44 PM 41.3425 -87.2017 332° Northwest 116 133 3,900  Level Chicago Center
Sun 07:46:46 PM 41.3711 -87.2242 329° Northwest 119 137 3,900 -97 Level Chicago Center
Sun 07:47:48 PM 41.4008 -87.2472 330° Northwest 122 140 3,700 -484 Descending Chicago Center
Sun 07:48:50 PM 41.4408 -87.2767 331° Northwest 130 150 2,900 -629 Descending Chicago Center
Sun 07:49:52 PM 41.4739 -87.3003 332° Northwest 134 154 2,400 -242 Descending Chicago Center
Sun 07:50:54 PM 41.5033 -87.3236 329° Northwest 132 152 2,400  Level Chicago Center
Sun 07:51:56 PM 41.5317 -87.3442 331° Northwest 125 144 2,400 -242 Level Chicago Center
Sun 07:52:58 PM 41.5672 -87.3717 330° Northwest 123 142 1,900 -435 Descending Chicago Center
Sun 07:54:00 PM 41.5911 -87.3992 319° Northwest 125 144 1,500 -387 Descending Chicago Center
Sun 07:56:00 PM 41.6000 -87.4000 334° Northwest  Level FlightAware Approximate

Login

Don't have an account? Register now (free) for customized features, flight alerts, and more!